Time;durP1;ratioP1;P1;durP2;ratioP2;P2;SDS_P1;SDS_P2;PMS_P1;PMS_P2;Temp;Humidity;BMP_temperature;BMP_pressure;BME280_temperature;BME280_humidity;BME280_pressure;Samples;Min_cycle;Max_cycle;Signal;HPM_P1;HPM_P2
2022/06/26 00:00:19;;;;;;;;;;;24.10;66.80;;;;;;5102132;27;19931;-66
2022/06/26 00:02:45;;;;;;;;;;;24.10;66.80;;;;;;5115337;27;19920;-66
2022/06/26 00:05:11;;;;;;;;;;;24.10;66.70;;;;;;5100582;27;19923;-66
2022/06/26 00:07:36;;;;;;;;;;;24.10;66.70;;;;;;5113291;27;19928;-66
2022/06/26 00:10:02;;;;;;;;;;;24.10;66.70;;;;;;5114461;27;19920;-66
2022/06/26 00:12:28;;;;;;;;;;;24.10;66.70;;;;;;5114459;27;20527;-66
2022/06/26 00:14:53;;;;;;;;;;;24.10;66.60;;;;;;5115658;27;19935;-66
2022/06/26 00:17:19;;;;;;;;;;;24.00;66.50;;;;;;5105684;27;19931;-65
2022/06/26 00:19:44;;;;;;;;;;;24.00;66.50;;;;;;5111345;27;19958;-65
2022/06/26 00:22:10;;;;;;;;;;;24.10;66.50;;;;;;5114531;27;19969;-66
2022/06/26 00:24:36;;;;;;;;;;;24.10;66.60;;;;;;5113430;27;19998;-66
2022/06/26 00:27:03;;;;;;;;;;;24.00;66.50;;;;;;5094877;27;19919;-66
2022/06/26 00:29:29;;;;;;;;;;;24.00;66.40;;;;;;5112514;27;19919;-66
2022/06/26 00:31:55;;;;;;;;;;;24.10;66.50;;;;;;5097225;27;19919;-66
2022/06/26 00:34:20;;;;;;;;;;;24.00;66.30;;;;;;5103735;27;19947;-65
2022/06/26 00:36:46;;;;;;;;;;;24.00;66.30;;;;;;5113572;27;19931;-65
2022/06/26 00:39:11;;;;;;;;;;;24.00;66.30;;;;;;5114300;27;19924;-65
2022/06/26 00:41:38;;;;;;;;;;;24.00;66.10;;;;;;5113100;27;19926;-65
2022/06/26 00:44:13;;;;;;;;;;;24.00;66.20;;;;;;5113434;27;19924;-66
2022/06/26 00:46:39;;;;;;;;;;;24.10;66.30;;;;;;5115985;27;19920;-67
2022/06/26 00:49:04;;;;;;;;;;;24.00;66.10;;;;;;5112299;27;19923;-66
2022/06/26 00:51:29;;;;;;;;;;;24.00;66.20;;;;;;5112285;27;20461;-66
2022/06/26 00:53:55;;;;;;;;;;;24.00;66.20;;;;;;5116359;27;19927;-66
2022/06/26 00:56:21;;;;;;;;;;;24.00;66.20;;;;;;5097089;27;19920;-66
2022/06/26 00:58:46;;;;;;;;;;;24.00;66.20;;;;;;5112109;27;19944;-66
2022/06/26 01:01:12;;;;;;;;;;;24.00;66.20;;;;;;5113882;27;19930;-66
2022/06/26 01:03:37;;;;;;;;;;;24.00;66.10;;;;;;5096669;27;19924;-66
2022/06/26 01:06:05;;;;;;;;;;;24.00;66.20;;;;;;5114151;27;19937;-65
2022/06/26 01:08:31;;;;;;;;;;;24.00;66.20;;;;;;5096941;27;20010;-67
2022/06/26 01:10:56;;;;;;;;;;;24.00;66.20;;;;;;5115223;27;20347;-66
2022/06/26 01:13:22;;;;;;;;;;;24.00;66.20;;;;;;5094213;27;19923;-65
2022/06/26 01:15:47;;;;;;;;;;;24.00;66.20;;;;;;5112861;27;20426;-66
2022/06/26 01:18:13;;;;;;;;;;;24.00;66.20;;;;;;5113838;27;19972;-66
2022/06/26 01:20:39;;;;;;;;;;;24.00;66.20;;;;;;5114524;27;20375;-66
2022/06/26 01:23:06;;;;;;;;;;;24.00;66.20;;;;;;5110946;27;19927;-65
2022/06/26 01:25:40;;;;;;;;;;;24.00;66.20;;;;;;5114446;27;20010;-65
2022/06/26 01:28:06;;;;;;;;;;;24.00;66.30;;;;;;5109759;27;20019;-66
2022/06/26 01:30:31;;;;;;;;;;;24.00;66.20;;;;;;5113564;27;20505;-66
2022/06/26 01:32:57;;;;;;;;;;;24.00;66.20;;;;;;5095046;27;19971;-66
2022/06/26 01:35:22;;;;;;;;;;;24.00;66.20;;;;;;5115365;27;20350;-65
2022/06/26 01:37:48;;;;;;;;;;;24.00;66.20;;;;;;5113993;27;19919;-65
2022/06/26 01:40:13;;;;;;;;;;;24.00;66.20;;;;;;5114841;27;19923;-66
2022/06/26 01:42:39;;;;;;;;;;;24.00;66.20;;;;;;5113295;27;19930;-66
2022/06/26 01:45:05;;;;;;;;;;;24.00;66.30;;;;;;5113818;27;19927;-65
2022/06/26 01:47:30;;;;;;;;;;;24.00;66.30;;;;;;5101631;27;19924;-65
2022/06/26 01:49:56;;;;;;;;;;;24.00;66.20;;;;;;5093450;27;20000;-66
2022/06/26 01:52:21;;;;;;;;;;;24.00;66.30;;;;;;5111483;27;20014;-66
2022/06/26 01:54:47;;;;;;;;;;;24.00;66.30;;;;;;5112972;27;20633;-65
2022/06/26 01:57:12;;;;;;;;;;;24.00;66.30;;;;;;5111249;27;19923;-65
2022/06/26 01:59:38;;;;;;;;;;;24.00;66.30;;;;;;5085194;27;19980;-66
2022/06/26 02:02:03;;;;;;;;;;;24.00;66.30;;;;;;5086946;27;19963;-66
2022/06/26 02:04:29;;;;;;;;;;;24.00;66.30;;;;;;5091928;27;19920;-66
2022/06/26 02:06:55;;;;;;;;;;;24.00;66.40;;;;;;5092660;27;20398;-65
2022/06/26 02:14:50;;;;;;;;;;;24.00;66.20;;;;;;5110715;27;19931;-66
2022/06/26 02:17:16;;;;;;;;;;;24.00;66.30;;;;;;5111817;27;19928;-66
2022/06/26 02:19:41;;;;;;;;;;;24.00;66.30;;;;;;5092994;27;19928;-66
2022/06/26 02:22:07;;;;;;;;;;;24.00;66.40;;;;;;5109898;27;20681;-65
2022/06/26 02:24:32;;;;;;;;;;;24.00;66.30;;;;;;5094519;27;19924;-65
2022/06/26 02:26:58;;;;;;;;;;;24.00;66.30;;;;;;5092236;27;19973;-66
2022/06/26 02:29:23;;;;;;;;;;;24.00;66.30;;;;;;5111139;27;19920;-65
2022/06/26 02:31:49;;;;;;;;;;;23.90;66.20;;;;;;5092960;27;19927;-66
2022/06/26 02:34:14;;;;;;;;;;;24.00;66.30;;;;;;5111622;27;19969;-65
2022/06/26 02:36:40;;;;;;;;;;;23.90;66.20;;;;;;5112476;27;20006;-65
2022/06/26 02:39:05;;;;;;;;;;;24.00;66.20;;;;;;5109830;27;20808;-65
2022/06/26 02:41:31;;;;;;;;;;;23.90;66.10;;;;;;5111663;27;20049;-65
2022/06/26 02:43:56;;;;;;;;;;;24.00;66.30;;;;;;5112662;27;19919;-65
2022/06/26 02:46:22;;;;;;;;;;;24.00;66.20;;;;;;5111492;27;20317;-65
2022/06/26 02:48:47;;;;;;;;;;;23.90;66.20;;;;;;5112280;27;20353;-65
2022/06/26 02:51:13;;;;;;;;;;;24.00;66.20;;;;;;5109658;27;19924;-65
2022/06/26 02:53:38;;;;;;;;;;;24.00;66.20;;;;;;5094240;28;19931;-65
2022/06/26 02:56:04;;;;;;;;;;;23.90;66.20;;;;;;5112720;28;20339;-65
2022/06/26 02:58:29;;;;;;;;;;;23.90;66.10;;;;;;5109678;27;19924;-66
2022/06/26 03:00:55;;;;;;;;;;;23.90;66.10;;;;;;5110106;28;19924;-66
2022/06/26 03:03:20;;;;;;;;;;;23.90;66.10;;;;;;5094994;28;19930;-65
2022/06/26 03:05:46;;;;;;;;;;;23.90;66.10;;;;;;5111910;28;19927;-66
2022/06/26 03:08:11;;;;;;;;;;;23.90;66.10;;;;;;5092629;28;19972;-65
2022/06/26 03:10:37;;;;;;;;;;;23.90;66.10;;;;;;5112010;28;20350;-65
2022/06/26 03:13:03;;;;;;;;;;;23.90;66.00;;;;;;5112742;28;19974;-65
2022/06/26 03:15:28;;;;;;;;;;;23.90;66.00;;;;;;5092729;28;20018;-65
2022/06/26 03:17:54;;;;;;;;;;;23.90;65.90;;;;;;5110707;28;20390;-66
2022/06/26 03:20:20;;;;;;;;;;;23.90;65.90;;;;;;5109920;27;19982;-66
2022/06/26 03:22:46;;;;;;;;;;;23.90;65.90;;;;;;5111082;28;19975;-65
2022/06/26 03:25:12;;;;;;;;;;;23.90;65.90;;;;;;5108094;27;19926;-65
2022/06/26 03:27:37;;;;;;;;;;;23.90;65.90;;;;;;5112440;27;20250;-65
2022/06/26 03:30:03;;;;;;;;;;;23.90;65.80;;;;;;5114607;27;20675;-66
2022/06/26 03:32:29;;;;;;;;;;;23.90;65.80;;;;;;5095722;27;19983;-65
2022/06/26 03:34:54;;;;;;;;;;;23.90;65.80;;;;;;5116119;27;20375;-65
2022/06/26 03:37:20;;;;;;;;;;;23.90;65.80;;;;;;5115802;27;19961;-65
2022/06/26 03:39:45;;;;;;;;;;;23.90;65.70;;;;;;5118042;27;19934;-66
2022/06/26 03:42:11;;;;;;;;;;;23.90;65.80;;;;;;5115335;27;20302;-66
2022/06/26 03:44:36;;;;;;;;;;;23.90;65.80;;;;;;5116456;27;19983;-65
2022/06/26 03:47:02;;;;;;;;;;;23.90;65.70;;;;;;5115897;27;19982;-66
2022/06/26 03:49:28;;;;;;;;;;;23.90;65.70;;;;;;5115982;27;19919;-65
2022/06/26 03:51:54;;;;;;;;;;;23.90;65.60;;;;;;5113280;27;19927;-66
2022/06/26 03:54:20;;;;;;;;;;;23.90;65.60;;;;;;5116799;27;19931;-65
2022/06/26 03:56:46;;;;;;;;;;;23.90;65.60;;;;;;5097223;27;19950;-65
2022/06/26 03:59:11;;;;;;;;;;;23.90;65.60;;;;;;5096823;27;19924;-65
2022/06/26 04:01:37;;;;;;;;;;;24.00;65.60;;;;;;5116091;27;20287;-66
2022/06/26 04:04:02;;;;;;;;;;;23.90;65.50;;;;;;5116427;27;19930;-65
2022/06/26 04:06:28;;;;;;;;;;;23.90;65.50;;;;;;5098912;27;19919;-65
2022/06/26 04:08:54;;;;;;;;;;;23.90;65.50;;;;;;5112317;27;19932;-66
2022/06/26 04:11:19;;;;;;;;;;;23.90;65.50;;;;;;5096751;27;20833;-66
2022/06/26 04:13:45;;;;;;;;;;;23.90;65.40;;;;;;5111469;27;19999;-65
2022/06/26 04:16:10;;;;;;;;;;;23.90;65.40;;;;;;5112155;27;20363;-66
2022/06/26 04:18:36;;;;;;;;;;;23.90;65.40;;;;;;5078088;27;19928;-66
2022/06/26 04:21:02;;;;;;;;;;;23.90;66.10;;;;;;5094231;27;19920;-66
2022/06/26 04:23:27;;;;;;;;;;;23.90;65.40;;;;;;5115049;27;19972;-67
2022/06/26 04:25:53;;;;;;;;;;;23.90;65.40;;;;;;5111428;27;19919;-66
2022/06/26 04:28:19;;;;;;;;;;;23.90;65.40;;;;;;5095200;27;19928;-66
2022/06/26 04:30:44;;;;;;;;;;;23.90;65.30;;;;;;5097040;27;20043;-66
2022/06/26 04:33:10;;;;;;;;;;;23.80;65.20;;;;;;5112988;27;19924;-65
2022/06/26 04:35:35;;;;;;;;;;;23.80;65.20;;;;;;5096157;27;19974;-65
2022/06/26 04:38:01;;;;;;;;;;;23.80;65.20;;;;;;5114760;27;20042;-65
2022/06/26 04:40:26;;;;;;;;;;;23.80;65.30;;;;;;5094014;27;21429;-66
2022/06/26 04:42:53;;;;;;;;;;;23.80;65.30;;;;;;5112930;27;20378;-66
2022/06/26 04:45:18;;;;;;;;;;;23.80;65.30;;;;;;5096762;27;19923;-66
2022/06/26 04:47:44;;;;;;;;;;;23.80;65.30;;;;;;5113423;27;20290;-65
2022/06/26 04:50:09;;;;;;;;;;;23.80;65.20;;;;;;5111784;27;19970;-65
2022/06/26 04:52:35;;;;;;;;;;;23.80;65.90;;;;;;5094525;27;19923;-66
2022/06/26 04:55:00;;;;;;;;;;;23.80;65.20;;;;;;5112725;27;20026;-66
2022/06/26 04:57:26;;;;;;;;;;;23.80;65.20;;;;;;5112904;27;19927;-65
2022/06/26 04:59:51;;;;;;;;;;;23.80;65.20;;;;;;5114833;27;19923;-65
2022/06/26 05:02:17;;;;;;;;;;;23.80;65.10;;;;;;5079510;27;19924;-66
2022/06/26 05:04:43;;;;;;;;;;;23.80;65.10;;;;;;5113123;27;19991;-66
2022/06/26 05:07:08;;;;;;;;;;;23.80;65.10;;;;;;5114407;27;20380;-66
2022/06/26 05:09:34;;;;;;;;;;;23.80;65.20;;;;;;5095122;27;19920;-66
2022/06/26 05:11:59;;;;;;;;;;;23.80;65.20;;;;;;5096462;27;19927;-66
2022/06/26 05:14:25;;;;;;;;;;;23.80;65.40;;;;;;5112618;27;19924;-66
2022/06/26 05:16:50;;;;;;;;;;;23.80;65.60;;;;;;5096920;27;19923;-67
2022/06/26 05:19:16;;;;;;;;;;;23.80;65.70;;;;;;5095934;27;20365;-66
2022/06/26 05:21:42;;;;;;;;;;;23.80;65.60;;;;;;5111665;27;19955;-66
2022/06/26 05:24:07;;;;;;;;;;;23.80;65.60;;;;;;5093155;27;19955;-67
2022/06/26 05:26:34;;;;;;;;;;;23.80;65.60;;;;;;5091088;27;19930;-67
2022/06/26 05:28:59;;;;;;;;;;;23.90;66.30;;;;;;5110305;27;19927;-65
2022/06/26 05:31:25;;;;;;;;;;;23.90;66.00;;;;;;5114194;27;19927;-66
2022/06/26 05:33:50;;;;;;;;;;;23.90;65.90;;;;;;5114018;27;19930;-66
2022/06/26 05:36:16;;;;;;;;;;;23.80;65.70;;;;;;5110088;27;19986;-65
2022/06/26 05:38:41;;;;;;;;;;;23.90;66.40;;;;;;5110735;27;19923;-66
2022/06/26 05:41:07;;;;;;;;;;;23.90;66.00;;;;;;5111055;27;19924;-65
2022/06/26 05:43:33;;;;;;;;;;;23.90;65.90;;;;;;5113292;27;20022;-66
2022/06/26 05:45:59;;;;;;;;;;;23.90;65.90;;;;;;5107106;27;19926;-67
2022/06/26 05:48:25;;;;;;;;;;;23.90;66.50;;;;;;5108321;27;20472;-67
2022/06/26 05:50:50;;;;;;;;;;;23.90;67.10;;;;;;5112717;27;20006;-66
2022/06/26 05:53:16;;;;;;;;;;;23.90;67.10;;;;;;5111032;27;20366;-66
2022/06/26 05:55:42;;;;;;;;;;;23.90;67.00;;;;;;5112008;27;19919;-69
2022/06/26 05:58:07;;;;;;;;;;;23.90;66.90;;;;;;5094513;27;19923;-67
2022/06/26 06:00:33;;;;;;;;;;;23.90;66.60;;;;;;5110104;27;20405;-69
2022/06/26 06:02:59;;;;;;;;;;;23.90;66.50;;;;;;5113554;27;19930;-67
2022/06/26 06:05:25;;;;;;;;;;;23.90;66.30;;;;;;5092640;27;20022;-68
2022/06/26 06:07:51;;;;;;;;;;;23.90;66.30;;;;;;5111985;27;20448;-67
2022/06/26 06:10:19;;;;;;;;;;;23.90;66.80;;;;;;5113696;27;19927;-67
2022/06/26 06:12:48;;;;;;;;;;;23.90;67.10;;;;;;5113054;27;19934;-66
2022/06/26 06:15:14;;;;;;;;;;;23.90;66.90;;;;;;5110876;27;19923;-66
2022/06/26 06:17:40;;;;;;;;;;;23.90;66.80;;;;;;5112438;27;19923;-67
2022/06/26 06:20:12;;;;;;;;;;;23.90;66.80;;;;;;5100623;27;20717;-66
2022/06/26 06:22:42;;;;;;;;;;;23.90;67.10;;;;;;5112908;27;19947;-67
2022/06/26 06:25:08;;;;;;;;;;;23.90;67.00;;;;;;5092817;28;19919;-69
2022/06/26 06:27:34;;;;;;;;;;;23.90;67.10;;;;;;5093405;28;19923;-67
2022/06/26 06:29:59;;;;;;;;;;;23.90;67.00;;;;;;5113640;27;19931;-68
2022/06/26 06:32:26;;;;;;;;;;;23.90;67.20;;;;;;5092667;27;19962;-67
2022/06/26 06:34:51;;;;;;;;;;;23.90;67.00;;;;;;5110953;27;20058;-68
2022/06/26 06:37:17;;;;;;;;;;;23.90;66.90;;;;;;5095141;27;19924;-67
2022/06/26 06:39:43;;;;;;;;;;;23.90;67.10;;;;;;5093196;27;19931;-67
2022/06/26 06:42:08;;;;;;;;;;;23.90;66.70;;;;;;5095159;28;19931;-66
2022/06/26 06:44:34;;;;;;;;;;;23.90;67.10;;;;;;5092894;27;19946;-66
2022/06/26 06:46:59;;;;;;;;;;;23.90;67.20;;;;;;5109794;27;19972;-66
2022/06/26 06:49:25;;;;;;;;;;;23.90;67.30;;;;;;5092554;27;20120;-67
2022/06/26 06:51:52;;;;;;;;;;;23.90;67.30;;;;;;5112012;27;19923;-67
2022/06/26 06:54:17;;;;;;;;;;;24.00;67.30;;;;;;5093637;27;19923;-67
2022/06/26 06:56:42;;;;;;;;;;;23.90;67.30;;;;;;5113870;27;19989;-67
2022/06/26 06:59:08;;;;;;;;;;;24.00;67.30;;;;;;5112511;27;20404;-67
2022/06/26 07:01:34;;;;;;;;;;;24.00;67.10;;;;;;5113337;27;19984;-67
2022/06/26 07:04:00;;;;;;;;;;;24.00;67.00;;;;;;5111547;28;19924;-66
2022/06/26 07:06:26;;;;;;;;;;;24.00;66.80;;;;;;5113019;28;19927;-67
2022/06/26 07:08:52;;;;;;;;;;;24.00;66.70;;;;;;5096113;28;19923;-67
2022/06/26 07:11:18;;;;;;;;;;;24.00;66.60;;;;;;5105540;28;19931;-67
2022/06/26 07:13:44;;;;;;;;;;;24.00;66.60;;;;;;5112441;28;19920;-68
2022/06/26 07:16:09;;;;;;;;;;;24.00;66.60;;;;;;5091348;27;19926;-67
2022/06/26 07:18:35;;;;;;;;;;;24.00;66.40;;;;;;5111615;27;20029;-67
2022/06/26 07:21:00;;;;;;;;;;;24.00;67.00;;;;;;5110054;27;19927;-67
2022/06/26 07:23:26;;;;;;;;;;;24.00;66.30;;;;;;5113028;27;19963;-67
2022/06/26 07:25:52;;;;;;;;;;;24.00;66.20;;;;;;5113354;27;19976;-67
2022/06/26 07:28:17;;;;;;;;;;;24.00;66.20;;;;;;5109868;27;19919;-67
2022/06/26 07:30:43;;;;;;;;;;;24.00;66.10;;;;;;5099377;28;20036;-66
2022/06/26 07:34:12;;;;;;;;;;;24.00;66.10;;;;;;5077001;27;20021;-67
2022/06/26 07:35:54;;;;;;;;;;;24.00;66.00;;;;;;5095194;28;19924;-67
2022/06/26 07:38:19;;;;;;;;;;;24.00;66.00;;;;;;5093691;27;19997;-68
2022/06/26 07:40:45;;;;;;;;;;;24.00;66.10;;;;;;5113237;27;19958;-69
2022/06/26 07:43:10;;;;;;;;;;;24.00;66.00;;;;;;5111669;27;19924;-68
2022/06/26 07:45:36;;;;;;;;;;;24.00;65.90;;;;;;5111619;27;20080;-68
2022/06/26 07:48:01;;;;;;;;;;;24.00;66.00;;;;;;5110877;27;19933;-67
2022/06/26 07:50:28;;;;;;;;;;;24.10;66.00;;;;;;5112628;27;20795;-67
2022/06/26 07:52:54;;;;;;;;;;;24.00;65.90;;;;;;5114822;28;19927;-68
2022/06/26 07:55:19;;;;;;;;;;;24.00;65.80;;;;;;5092853;28;19920;-70
2022/06/26 07:57:45;;;;;;;;;;;24.10;66.10;;;;;;5095593;28;19923;-69
2022/06/26 08:00:10;;;;;;;;;;;24.10;66.40;;;;;;5111387;28;20395;-67
2022/06/26 08:02:36;;;;;;;;;;;24.10;66.50;;;;;;5110790;28;19977;-68
2022/06/26 08:05:02;;;;;;;;;;;24.10;66.40;;;;;;5080566;28;19924;-68
2022/06/26 08:07:27;;;;;;;;;;;24.10;66.30;;;;;;5073398;28;19977;-68
2022/06/26 08:09:53;;;;;;;;;;;24.10;66.20;;;;;;5099303;28;19950;-68
2022/06/26 08:12:18;;;;;;;;;;;24.10;66.20;;;;;;5093530;28;19927;-68
2022/06/26 08:14:44;;;;;;;;;;;24.10;66.20;;;;;;5111796;27;19927;-67
2022/06/26 08:17:09;;;;;;;;;;;24.10;66.20;;;;;;5117496;27;19923;-68
2022/06/26 08:19:35;;;;;;;;;;;24.10;66.70;;;;;;5096319;27;20857;-69
2022/06/26 08:22:00;;;;;;;;;;;24.10;67.00;;;;;;5116281;27;19924;-68
2022/06/26 08:24:26;;;;;;;;;;;24.10;66.90;;;;;;5115431;27;19938;-67
2022/06/26 08:26:52;;;;;;;;;;;24.10;66.90;;;;;;5096321;27;20821;-67
2022/06/26 08:29:17;;;;;;;;;;;24.20;66.80;;;;;;5113387;27;20067;-67
2022/06/26 08:31:43;;;;;;;;;;;24.20;66.70;;;;;;5095807;27;20006;-67
2022/06/26 08:34:08;;;;;;;;;;;24.20;66.50;;;;;;5112825;27;20038;-67
2022/06/26 08:36:34;;;;;;;;;;;24.20;66.60;;;;;;5110463;27;20438;-67
2022/06/26 08:38:59;;;;;;;;;;;24.20;66.80;;;;;;5082781;27;19919;-67
2022/06/26 08:41:27;;;;;;;;;;;24.20;67.00;;;;;;5115342;27;20816;-67
2022/06/26 08:43:53;;;;;;;;;;;24.20;66.90;;;;;;5114262;27;19976;-67
2022/06/26 08:46:21;;;;;;;;;;;24.20;66.60;;;;;;5116750;27;20385;-65
2022/06/26 08:48:47;;;;;;;;;;;24.20;66.80;;;;;;5113187;27;19928;-66
2022/06/26 08:51:13;;;;;;;;;;;24.20;66.70;;;;;;5097473;27;19923;-66
2022/06/26 08:53:40;;;;;;;;;;;24.20;66.70;;;;;;5114361;27;20397;-67
2022/06/26 08:56:06;;;;;;;;;;;24.20;66.40;;;;;;5097904;27;19939;-67
2022/06/26 08:58:31;;;;;;;;;;;24.20;66.30;;;;;;5115235;27;19973;-68
2022/06/26 09:00:57;;;;;;;;;;;24.20;67.00;;;;;;5110933;27;19927;-68
2022/06/26 09:03:23;;;;;;;;;;;24.20;66.00;;;;;;5114889;27;20000;-68
2022/06/26 09:05:48;;;;;;;;;;;24.20;66.00;;;;;;5094415;27;19931;-67
2022/06/26 09:08:18;;;;;;;;;;;24.20;66.00;;;;;;5113807;27;19926;-64
2022/06/26 09:10:47;;;;;;;;;;;24.20;65.90;;;;;;5114660;27;20010;-71
2022/06/26 09:13:13;;;;;;;;;;;24.20;65.60;;;;;;5112581;27;19931;-67
2022/06/26 09:15:40;;;;;;;;;;;24.30;65.80;;;;;;5115272;27;19919;-70
2022/06/26 09:18:07;;;;;;;;;;;24.20;65.40;;;;;;5114612;27;19962;-65
2022/06/26 09:20:35;;;;;;;;;;;24.20;65.40;;;;;;5113200;27;19923;-65
2022/06/26 09:23:01;;;;;;;;;;;24.30;65.50;;;;;;5111133;27;19928;-67
2022/06/26 09:25:43;;;;;;;;;;;24.20;65.40;;;;;;5111421;27;20391;-69
2022/06/26 09:28:11;;;;;;;;;;;24.20;65.10;;;;;;5111419;27;19927;-67
2022/06/26 09:30:46;;;;;;;;;;;24.30;65.10;;;;;;5113501;27;20051;-71
2022/06/26 09:33:12;;;;;;;;;;;24.30;64.80;;;;;;5115245;27;19935;-66
2022/06/26 09:35:37;;;;;;;;;;;24.30;64.90;;;;;;5093754;27;19928;-69
2022/06/26 09:38:03;;;;;;;;;;;24.20;64.80;;;;;;5113588;27;20379;-68
2022/06/26 09:40:29;;;;;;;;;;;24.20;64.70;;;;;;5111690;27;19934;-68
2022/06/26 09:42:55;;;;;;;;;;;24.20;64.40;;;;;;5113204;27;19924;-67
2022/06/26 09:45:21;;;;;;;;;;;24.20;64.40;;;;;;5112059;27;20011;-65
2022/06/26 09:47:46;;;;;;;;;;;24.20;64.30;;;;;;5113745;27;20018;-69
2022/06/26 09:50:12;;;;;;;;;;;24.20;64.10;;;;;;5114344;27;19959;-68
2022/06/26 09:52:37;;;;;;;;;;;24.30;64.00;;;;;;5113151;27;19933;-68
2022/06/26 09:55:05;;;;;;;;;;;24.20;63.80;;;;;;5111578;27;20419;-67
2022/06/26 09:57:32;;;;;;;;;;;24.20;63.60;;;;;;5113912;27;19930;-67
2022/06/26 09:59:58;;;;;;;;;;;24.30;63.60;;;;;;5110193;27;19930;-68
2022/06/26 10:07:59;;;;;;;;;;;24.20;60.10;;;;;;5113707;27;19934;-67
2022/06/26 10:10:24;;;;;;;;;;;24.20;60.70;;;;;;5111395;27;19927;-67
2022/06/26 10:12:55;;;;;;;;;;;24.20;60.00;;;;;;5111813;27;19934;-67
2022/06/26 10:15:23;;;;;;;;;;;24.20;58.00;;;;;;5113926;27;19928;-68
2022/06/26 10:18:12;;;;;;;;;;;24.20;59.20;;;;;;5110976;27;19923;-67
2022/06/26 10:20:39;;;;;;;;;;;24.10;59.00;;;;;;5112345;27;20567;-68
2022/06/26 10:23:04;;;;;;;;;;;24.10;58.90;;;;;;5094931;28;19927;-68
2022/06/26 10:25:31;;;;;;;;;;;24.10;59.30;;;;;;5109446;27;19923;-69
2022/06/26 10:27:57;;;;;;;;;;;24.10;58.30;;;;;;5091980;27;20124;-69
2022/06/26 10:30:23;;;;;;;;;;;24.10;57.00;;;;;;5113790;27;19973;-68
2022/06/26 10:33:05;;;;;;;;;;;24.10;56.10;;;;;;5113196;27;19930;-68
2022/06/26 10:35:45;;;;;;;;;;;24.10;56.80;;;;;;5110871;27;19927;-67
2022/06/26 10:38:18;;;;;;;;;;;24.00;56.30;;;;;;5096767;27;20283;-67
2022/06/26 10:43:37;;;;;;;;;;;24.00;56.00;;;;;;5095782;27;19926;-68
2022/06/26 10:46:03;;;;;;;;;;;24.10;56.70;;;;;;5113195;27;20852;-68
2022/06/26 10:48:28;;;;;;;;;;;24.00;55.80;;;;;;5111432;27;19972;-68
2022/06/26 10:50:58;;;;;;;;;;;24.00;56.00;;;;;;5111237;27;19934;-67
2022/06/26 10:53:26;;;;;;;;;;;24.00;56.10;;;;;;5093812;27;19966;-69
2022/06/26 10:55:56;;;;;;;;;;;24.00;55.00;;;;;;5111883;27;19967;-67
2022/06/26 10:58:27;;;;;;;;;;;24.00;55.70;;;;;;5114067;27;19930;-67
2022/06/26 11:00:54;;;;;;;;;;;24.00;55.60;;;;;;5109624;28;19924;-68
2022/06/26 11:03:19;;;;;;;;;;;24.00;54.70;;;;;;5113357;27;19923;-67
2022/06/26 11:05:52;;;;;;;;;;;24.00;55.50;;;;;;5109438;28;19923;-67
2022/06/26 11:08:22;;;;;;;;;;;24.00;55.90;;;;;;5098092;28;19968;-67
2022/06/26 11:10:48;;;;;;;;;;;24.00;55.00;;;;;;5091849;28;19920;-67
2022/06/26 11:13:13;;;;;;;;;;;24.00;55.70;;;;;;5079511;28;20788;-67
2022/06/26 11:15:39;;;;;;;;;;;24.00;56.30;;;;;;5111183;28;20168;-68
2022/06/26 11:18:05;;;;;;;;;;;24.00;55.90;;;;;;5112294;28;19927;-67
2022/06/26 11:20:47;;;;;;;;;;;24.00;55.90;;;;;;5093524;28;20010;-68
2022/06/26 11:23:26;;;;;;;;;;;24.00;56.10;;;;;;5085937;28;19920;-68
2022/06/26 11:25:56;;;;;;;;;;;24.00;55.10;;;;;;5112611;28;20379;-68
2022/06/26 11:28:31;;;;;;;;;;;24.00;55.20;;;;;;5109119;28;19920;-69
2022/06/26 11:30:57;;;;;;;;;;;24.00;55.90;;;;;;5110796;27;19923;-67
2022/06/26 11:33:24;;;;;;;;;;;24.00;55.80;;;;;;5103190;28;19926;-67
2022/06/26 11:35:49;;;;;;;;;;;24.00;56.00;;;;;;5112590;28;20030;-67
2022/06/26 11:38:16;;;;;;;;;;;24.00;56.30;;;;;;5111355;28;20031;-68
2022/06/26 11:40:42;;;;;;;;;;;24.00;56.30;;;;;;5096588;28;20007;-67
2022/06/26 11:43:08;;;;;;;;;;;24.00;56.40;;;;;;5094521;28;19924;-67
2022/06/26 11:45:34;;;;;;;;;;;24.00;56.50;;;;;;5083864;28;19919;-67
2022/06/26 11:48:00;;;;;;;;;;;24.00;56.60;;;;;;5093137;28;19950;-67
2022/06/26 11:50:27;;;;;;;;;;;24.00;56.60;;;;;;5116845;27;19924;-67
2022/06/26 11:52:53;;;;;;;;;;;24.00;56.40;;;;;;5096877;27;19919;-67
2022/06/26 11:55:19;;;;;;;;;;;24.00;56.50;;;;;;5115508;27;20405;-67
2022/06/26 11:57:44;;;;;;;;;;;24.00;56.50;;;;;;5096868;27;19923;-67
2022/06/26 12:00:12;;;;;;;;;;;24.00;56.60;;;;;;5116129;27;19934;-70
2022/06/26 12:02:41;;;;;;;;;;;24.00;56.70;;;;;;5097658;27;19927;-68
2022/06/26 12:05:07;;;;;;;;;;;24.00;56.70;;;;;;5097796;27;19923;-69
2022/06/26 12:07:45;;;;;;;;;;;24.00;56.30;;;;;;5097980;27;20188;-68
2022/06/26 12:10:11;;;;;;;;;;;24.00;55.70;;;;;;5115455;27;19923;-70
2022/06/26 12:12:36;;;;;;;;;;;24.00;55.70;;;;;;5111810;27;19934;-72
2022/06/26 12:15:02;;;;;;;;;;;23.90;54.90;;;;;;5094464;27;19923;-69
2022/06/26 12:17:28;;;;;;;;;;;23.90;54.90;;;;;;5114323;27;19928;-69
2022/06/26 12:20:03;;;;;;;;;;;23.90;55.30;;;;;;5096869;27;20271;-69
2022/06/26 12:22:31;;;;;;;;;;;23.90;55.00;;;;;;5097375;27;20803;-68
2022/06/26 12:24:57;;;;;;;;;;;23.90;55.40;;;;;;5097828;27;19928;-66
2022/06/26 12:27:33;;;;;;;;;;;23.90;55.70;;;;;;5096197;27;20282;-68
2022/06/26 12:29:59;;;;;;;;;;;23.90;56.00;;;;;;5116787;27;19923;-68
2022/06/26 12:32:24;;;;;;;;;;;23.90;55.90;;;;;;5116855;27;19931;-68
2022/06/26 12:34:50;;;;;;;;;;;23.90;56.00;;;;;;5099017;27;20491;-67
2022/06/26 12:37:15;;;;;;;;;;;23.90;55.50;;;;;;5095234;27;19976;-68
2022/06/26 12:39:41;;;;;;;;;;;23.90;55.80;;;;;;5098364;27;19924;-68
2022/06/26 12:42:06;;;;;;;;;;;23.90;55.60;;;;;;5117166;27;19923;-68
2022/06/26 12:44:32;;;;;;;;;;;23.90;55.40;;;;;;5114771;27;20359;-67
2022/06/26 12:46:58;;;;;;;;;;;23.90;55.30;;;;;;5096886;27;19955;-68
2022/06/26 12:49:23;;;;;;;;;;;23.90;55.70;;;;;;5114518;27;20010;-68
2022/06/26 12:51:49;;;;;;;;;;;23.90;55.40;;;;;;5114301;27;20282;-67
2022/06/26 12:54:15;;;;;;;;;;;23.90;55.30;;;;;;5114229;27;19950;-67
2022/06/26 12:56:41;;;;;;;;;;;23.80;55.10;;;;;;5114788;27;20001;-68
2022/06/26 12:59:06;;;;;;;;;;;23.80;55.30;;;;;;5116493;27;20026;-67
2022/06/26 13:01:32;;;;;;;;;;;23.80;55.10;;;;;;5112682;27;19924;-68
2022/06/26 13:03:57;;;;;;;;;;;23.90;55.10;;;;;;5115129;27;19927;-66
2022/06/26 13:06:23;;;;;;;;;;;23.80;55.10;;;;;;5102101;27;20768;-66
2022/06/26 13:08:48;;;;;;;;;;;23.80;55.30;;;;;;5113452;27;19928;-66
2022/06/26 13:11:23;;;;;;;;;;;23.80;55.60;;;;;;5112903;27;20393;-67
2022/06/26 13:13:48;;;;;;;;;;;23.80;55.90;;;;;;5093351;27;19927;-67
2022/06/26 13:16:14;;;;;;;;;;;23.80;55.90;;;;;;5110363;27;19923;-65
2022/06/26 13:18:40;;;;;;;;;;;23.80;56.20;;;;;;5110208;27;19920;-66
2022/06/26 13:21:05;;;;;;;;;;;23.80;56.10;;;;;;5095319;27;19931;-65
2022/06/26 13:23:31;;;;;;;;;;;23.80;56.30;;;;;;5114254;27;19979;-67
2022/06/26 13:25:56;;;;;;;;;;;23.80;56.70;;;;;;5115357;27;19968;-65
2022/06/26 13:28:22;;;;;;;;;;;23.80;57.00;;;;;;5114358;27;19919;-67
2022/06/26 13:30:47;;;;;;;;;;;23.80;57.40;;;;;;5114615;27;20068;-67
2022/06/26 13:33:13;;;;;;;;;;;23.80;57.80;;;;;;5111860;27;19919;-67
2022/06/26 13:35:38;;;;;;;;;;;23.80;58.10;;;;;;5110326;27;19930;-67
2022/06/26 13:38:04;;;;;;;;;;;23.80;58.00;;;;;;5094138;27;19981;-68
2022/06/26 13:40:30;;;;;;;;;;;23.80;58.00;;;;;;5113007;27;20565;-68
2022/06/26 13:42:55;;;;;;;;;;;23.80;58.30;;;;;;5110418;27;19962;-67
2022/06/26 13:45:21;;;;;;;;;;;23.80;58.40;;;;;;5113159;27;19923;-65
2022/06/26 13:47:46;;;;;;;;;;;23.80;58.00;;;;;;5095631;27;19980;-67
2022/06/26 13:50:12;;;;;;;;;;;23.80;58.00;;;;;;5093776;27;20557;-67
2022/06/26 13:52:38;;;;;;;;;;;23.80;57.80;;;;;;5094405;27;19927;-67
2022/06/26 13:55:05;;;;;;;;;;;23.80;57.90;;;;;;5115510;27;19930;-70
2022/06/26 13:57:31;;;;;;;;;;;23.80;58.10;;;;;;5110496;27;19935;-67
2022/06/26 13:59:56;;;;;;;;;;;23.80;58.10;;;;;;5113533;27;19928;-67
2022/06/26 14:02:22;;;;;;;;;;;23.80;57.30;;;;;;5111767;27;19924;-68
2022/06/26 14:04:48;;;;;;;;;;;23.80;57.70;;;;;;5113890;27;20026;-67
2022/06/26 14:07:14;;;;;;;;;;;23.80;57.00;;;;;;5096934;27;19967;-68
2022/06/26 14:09:40;;;;;;;;;;;23.80;57.30;;;;;;5112050;27;20002;-68
2022/06/26 14:12:06;;;;;;;;;;;23.80;57.50;;;;;;5110904;27;19966;-66
2022/06/26 14:14:32;;;;;;;;;;;23.70;57.40;;;;;;5096616;27;19927;-66
2022/06/26 14:16:57;;;;;;;;;;;23.80;56.70;;;;;;5112492;27;19945;-67
2022/06/26 14:19:23;;;;;;;;;;;23.80;57.00;;;;;;5111173;27;19924;-67
2022/06/26 14:25:55;;;;;;;;;;;23.80;57.00;;;;;;5113067;27;19931;-67
2022/06/26 14:27:18;;;;;;;;;;;23.80;57.00;;;;;;5095131;27;19919;-66